地図

経路データ

SID SEASON NUMBER BASIN SUBBASIN NAME ISO_TIME NATURE LAT LON WMO_WIND WMO_PRES WMO_AGENCY TRACK_TYPE DIST2LAND LANDFALL IFLAG USA_AGENCY USA_ATCF_ID USA_LAT USA_LON USA_RECORD USA_STATUS USA_WIND USA_PRES USA_SSHS USA_R34_NE USA_R34_SE USA_R34_SW USA_R34_NW USA_R50_NE USA_R50_SE USA_R50_SW USA_R50_NW USA_R64_NE USA_R64_SE USA_R64_SW USA_R64_NW USA_POCI USA_ROCI USA_RMW USA_EYE TOKYO_LAT TOKYO_LON TOKYO_GRADE TOKYO_WIND TOKYO_PRES TOKYO_R50_DIR TOKYO_R50_LONG TOKYO_R50_SHORT TOKYO_R30_DIR TOKYO_R30_LONG TOKYO_R30_SHORT TOKYO_LAND CMA_LAT CMA_LON CMA_CAT CMA_WIND CMA_PRES HKO_LAT HKO_LON HKO_CAT HKO_WIND HKO_PRES NEWDELHI_LAT NEWDELHI_LON NEWDELHI_GRADE NEWDELHI_WIND NEWDELHI_PRES NEWDELHI_CI NEWDELHI_DP NEWDELHI_POCI REUNION_LAT REUNION_LON REUNION_TYPE REUNION_WIND REUNION_PRES REUNION_TNUM REUNION_CI REUNION_RMW REUNION_R34_NE REUNION_R34_SE REUNION_R34_SW REUNION_R34_NW REUNION_R50_NE REUNION_R50_SE REUNION_R50_SW REUNION_R50_NW REUNION_R64_NE REUNION_R64_SE REUNION_R64_SW REUNION_R64_NW BOM_LAT BOM_LON BOM_TYPE BOM_WIND BOM_PRES BOM_TNUM BOM_CI BOM_RMW BOM_R34_NE BOM_R34_SE BOM_R34_SW BOM_R34_NW BOM_R50_NE BOM_R50_SE BOM_R50_SW BOM_R50_NW BOM_R64_NE BOM_R64_SE BOM_R64_SW BOM_R64_NW BOM_ROCI BOM_POCI BOM_EYE BOM_POS_METHOD BOM_PRES_METHOD NADI_LAT NADI_LON NADI_CAT NADI_WIND NADI_PRES WELLINGTON_LAT WELLINGTON_LON WELLINGTON_WIND WELLINGTON_PRES DS824_LAT DS824_LON DS824_STAGE DS824_WIND DS824_PRES TD9636_LAT TD9636_LON TD9636_STAGE TD9636_WIND TD9636_PRES TD9635_LAT TD9635_LON TD9635_WIND TD9635_PRES TD9635_ROCI NEUMANN_LAT NEUMANN_LON NEUMANN_CLASS NEUMANN_WIND NEUMANN_PRES MLC_LAT MLC_LON MLC_CLASS MLC_WIND MLC_PRES USA_GUST BOM_GUST BOM_GUST_PER REUNION_GUST REUNION_GUST_PER USA_SEAHGT USA_SEARAD_NE USA_SEARAD_SE USA_SEARAD_SW USA_SEARAD_NW STORM_SPEED STORM_DIR
1929217N18133 1929 47 WP MM NOT_NAMED 1929-08-04 22:00:00 NR 18.3000 132.900 main 1032 1014 __________O___ -1 18.3000 132.900 7 7 288
1929217N18133 1929 47 WP MM NOT_NAMED 1929-08-05 00:00:00 NR 18.3659 132.682 main 1019 991 __________P___ -1 18.3659 132.682 7 7 288
1929217N18133 1929 47 WP MM NOT_NAMED 1929-08-05 03:00:00 NR 18.4648 132.356 main 997 966 __________P___ -1 18.4648 132.356 7 6 288
1929217N18133 1929 47 WP MM NOT_NAMED 1929-08-05 06:00:00 NR 18.5645 132.031 main 966 946 __________P___ -1 18.5645 132.031 7 6 288
1929217N18133 1929 47 WP MM NOT_NAMED 1929-08-05 09:00:00 NR 18.6658 131.707 main 946 937 __________P___ -1 18.6658 131.707 7 6 288
1929217N18133 1929 47 WP MM NOT_NAMED 1929-08-05 10:00:00 NR 18.7000 131.600 main 937 926 __________O___ -1 18.7000 131.600 7 6 289
1929217N18133 1929 47 WP MM NOT_NAMED 1929-08-05 12:00:00 NR 18.7692 131.386 main 926 907 __________P___ -1 18.7692 131.386 7 6 289
1929217N18133 1929 47 WP MM NOT_NAMED 1929-08-05 15:00:00 NR 18.8732 131.072 main 907 889 __________P___ -1 18.8732 131.072 7 6 289
1929217N18133 1929 47 WP MM NOT_NAMED 1929-08-05 18:00:00 NR 18.9745 130.771 main 889 865 __________P___ -1 18.9745 130.771 7 6 290
1929217N18133 1929 47 WP MM NOT_NAMED 1929-08-05 21:00:00 NR 19.0700 130.489 main 866 856 __________P___ -1 19.0700 130.489 7 6 290
1929217N18133 1929 47 WP MM NOT_NAMED 1929-08-05 22:00:00 NR 19.1000 130.400 main 856 836 __________O___ -1 19.1000 130.400 7 5 290
1929217N18133 1929 47 WP MM NOT_NAMED 1929-08-06 00:00:00 NR 19.1581 130.235 main 836 815 __________P___ -1 19.1581 130.235 7 5 291
1929217N18133 1929 47 WP MM NOT_NAMED 1929-08-06 03:00:00 NR 19.2392 130.008 main 815 795 __________P___ -1 19.2392 130.008 7 4 290
1929217N18133 1929 47 WP MM NOT_NAMED 1929-08-06 06:00:00 NR 19.3130 129.791 main 795 776 __________P___ -1 19.3130 129.791 7 4 289
1929217N18133 1929 47 WP MM NOT_NAMED 1929-08-06 09:00:00 NR 19.3795 129.575 main 776 765 __________P___ -1 19.3795 129.575 7 4 288
1929217N18133 1929 47 WP MM NOT_NAMED 1929-08-06 10:00:00 NR 19.4000 129.500 main 765 744 __________O___ -1 19.4000 129.500 7 5 285
1929217N18133 1929 47 WP MM NOT_NAMED 1929-08-06 12:00:00 NR 19.4391 129.331 main 744 725 __________P___ -1 19.4391 129.331 7 5 283
1929217N18133 1929 47 WP MM NOT_NAMED 1929-08-06 15:00:00 NR 19.4914 129.071 main 725 694 __________P___ -1 19.4914 129.071 7 5 282
1929217N18133 1929 47 WP MM NOT_NAMED 1929-08-06 18:00:00 NR 19.5388 128.815 main 694 675 __________P___ -1 19.5388 128.815 7 5 281
1929217N18133 1929 47 WP MM NOT_NAMED 1929-08-06 21:00:00 NR 19.5846 128.574 main 675 665 __________P___ -1 19.5846 128.574 7 5 282
1929217N18133 1929 47 WP MM NOT_NAMED 1929-08-06 22:00:00 NR 19.6000 128.500 main 665 655 __________O___ -1 19.6000 128.500 7 4 283
1929217N18133 1929 47 WP MM NOT_NAMED 1929-08-07 00:00:00 NR 19.6306 128.369 main 655 636 __________P___ -1 19.6306 128.369 7 4 285
1929217N18133 1929 47 WP MM NOT_NAMED 1929-08-07 03:00:00 NR 19.6765 128.191 main 636 616 __________P___ -1 19.6765 128.191 7 3 286
1929217N18133 1929 47 WP MM NOT_NAMED 1929-08-07 06:00:00 NR 19.7252 128.025 main 616 608 __________P___ -1 19.7252 128.025 7 3 288
1929217N18133 1929 47 WP MM NOT_NAMED 1929-08-07 09:00:00 NR 19.7799 127.858 main 608 598 __________P___ -1 19.7799 127.858 7 3 289
1929217N18133 1929 47 WP MM NOT_NAMED 1929-08-07 10:00:00 NR 19.8000 127.800 main 598 588 __________O___ -1 19.8000 127.800 7 4 290
1929217N18133 1929 47 WP MM NOT_NAMED 1929-08-07 12:00:00 NR 19.8443 127.672 main 588 571 __________P___ -1 19.8443 127.672 7 4 291
1929217N18133 1929 47 WP MM NOT_NAMED 1929-08-07 15:00:00 NR 19.9170 127.475 main 571 554 __________P___ -1 19.9170 127.475 7 4 292
1929217N18133 1929 47 WP MM NOT_NAMED 1929-08-07 18:00:00 NR 19.9945 127.272 main 554 534 __________P___ -1 19.9945 127.272 7 4 292
1929217N18133 1929 47 WP MM NOT_NAMED 1929-08-07 21:00:00 NR 20.0738 127.068 main 538 528 __________P___ -1 20.0738 127.068 7 4 292
1929217N18133 1929 47 WP MM NOT_NAMED 1929-08-07 22:00:00 NR 20.1000 127.000 main 528 518 __________O___ -1 20.1000 127.000 7 4 293
1929217N18133 1929 47 WP MM NOT_NAMED 1929-08-08 00:00:00 NR 20.1525 126.874 main 523 503 __________P___ -1 20.1525 126.874 7 4 294
1929217N18133 1929 47 WP MM NOT_NAMED 1929-08-08 03:00:00 NR 20.2314 126.686 main 503 489 __________P___ -1 20.2314 126.686 7 4 293
1929217N18133 1929 47 WP MM NOT_NAMED 1929-08-08 06:00:00 NR 20.3077 126.490 main 489 475 __________P___ -1 20.3077 126.490 7 4 291
1929217N18133 1929 47 WP MM NOT_NAMED 1929-08-08 09:00:00 NR 20.3783 126.277 main 475 466 __________P___ -1 20.3783 126.277 7 4 289
1929217N18133 1929 47 WP MM NOT_NAMED 1929-08-08 10:00:00 NR 20.4000 126.200 main 466 447 __________O___ -1 20.4000 126.200 7 5 285
1929217N18133 1929 47 WP MM NOT_NAMED 1929-08-08 12:00:00 NR 20.4391 126.029 main 447 435 __________P___ -1 20.4391 126.029 7 5 282
1929217N18133 1929 47 WP MM NOT_NAMED 1929-08-08 15:00:00 NR 20.4914 125.752 main 435 409 __________P___ -1 20.4914 125.752 7 5 281
1929217N18133 1929 47 WP MM NOT_NAMED 1929-08-08 18:00:00 NR 20.5389 125.467 main 409 391 __________P___ -1 20.5389 125.467 7 5 280
1929217N18133 1929 47 WP MM NOT_NAMED 1929-08-08 21:00:00 NR 20.5846 125.189 main 391 382 __________P___ -1 20.5846 125.189 7 5 280
1929217N18133 1929 47 WP MM NOT_NAMED 1929-08-08 22:00:00 NR 20.6000 125.100 main 382 367 __________O___ -1 20.6000 125.100 3 5 282
1929217N18133 1929 47 WP MM NOT_NAMED 1929-08-09 00:00:00 NR 20.6331 124.944 main 367 359 __________P___ -1 20.6331 124.944 3 4 283
1929217N18133 1929 47 WP MM NOT_NAMED 1929-08-09 03:00:00 NR 20.6830 124.722 main 359 345 __________P___ -1 20.6830 124.722 3 4 284
1929217N18133 1929 47 WP MM NOT_NAMED 1929-08-09 06:00:00 NR 20.7330 124.505 main 345 338 __________P___ -1 20.7330 124.505 3 4 284
1929217N18133 1929 47 WP MM NOT_NAMED 1929-08-09 09:00:00 NR 20.7832 124.279 main 340 334 __________P___ -1 20.7832 124.279 3 4 283
1929217N18133 1929 47 WP MM NOT_NAMED 1929-08-09 10:00:00 NR 20.8000 124.200 main 334 322 __________O___ -1 20.8000 124.200 4 5 280
1929217N18133 1929 47 WP MM NOT_NAMED 1929-08-09 12:00:00 NR 20.8282 124.018 main 322 310 __________P___ -1 20.8282 124.018 4 5 279
1929217N18133 1929 47 WP MM NOT_NAMED 1929-08-09 15:00:00 NR 20.8703 123.731 main 310 281 __________P___ -1 20.8703 123.731 4 5 280
1929217N18133 1929 47 WP MM NOT_NAMED 1929-08-09 18:00:00 NR 20.9177 123.446 main 281 258 __________P___ -1 20.9177 123.446 4 5 282
1929217N18133 1929 47 WP MM NOT_NAMED 1929-08-09 21:00:00 NR 20.9767 123.181 main 258 248 __________P___ -1 20.9767 123.181 4 5 284
1929217N18133 1929 47 WP MM NOT_NAMED 1929-08-09 22:00:00 NR 21.0000 123.100 main 248 234 __________O___ -1 21.0000 123.100 4 4 290
1929217N18133 1929 47 WP MM NOT_NAMED 1929-08-10 00:00:00 NR 21.0525 122.958 main 234 215 __________P___ -1 21.0525 122.958 4 4 295
1929217N18133 1929 47 WP MM NOT_NAMED 1929-08-10 03:00:00 NR 21.1439 122.770 main 215 192 __________P___ -1 21.1439 122.770 4 4 301
1929217N18133 1929 47 WP MM NOT_NAMED 1929-08-10 06:00:00 NR 21.2477 122.604 main 192 174 __________P___ -1 21.2477 122.604 4 4 306
1929217N18133 1929 47 WP MM NOT_NAMED 1929-08-10 09:00:00 NR 21.3608 122.450 main 174 164 __________P___ -1 21.3608 122.450 4 4 309
1929217N18133 1929 47 WP MM NOT_NAMED 1929-08-10 10:00:00 NR 21.4000 122.400 main 164 151 __________O___ -1 21.4000 122.400 4 4 306
1929217N18133 1929 47 WP MM NOT_NAMED 1929-08-10 12:00:00 NR 21.4697 122.289 main 151 128 __________P___ -1 21.4697 122.289 4 4 305
1929217N18133 1929 47 WP MM NOT_NAMED 1929-08-10 15:00:00 NR 21.5805 122.129 main 128 115 __________P___ -1 21.5805 122.129 4 4 309
1929217N18133 1929 47 WP MM NOT_NAMED 1929-08-10 18:00:00 NR 21.7042 121.979 main 115 93 __________P___ -1 21.7042 121.979 4 4 315
1929217N18133 1929 47 WP MM NOT_NAMED 1929-08-10 21:00:00 NR 21.8470 121.842 main 93 92 __________P___ -1 21.8470 121.842 4 4 320
1929217N18133 1929 47 WP MM NOT_NAMED 1929-08-10 22:00:00 NR 21.9000 121.800 main 92 82 __________O___ -1 21.9000 121.800 4 4 323
1929217N18133 1929 47 WP MM NOT_NAMED 1929-08-11 00:00:00 NR 22.0057 121.717 main 82 72 __________P___ -1 22.0057 121.717 4 4 327
1929217N18133 1929 47 WP MM NOT_NAMED 1929-08-11 03:00:00 NR 22.1829 121.604 main 72 56 __________P___ -1 22.1829 121.604 4 4 333
1929217N18133 1929 47 WP MM NOT_NAMED 1929-08-11 06:00:00 NR 22.3854 121.507 main 56 38 __________P___ -1 22.3854 121.507 4 5 339
1929217N18133 1929 47 WP MM NOT_NAMED 1929-08-11 09:00:00 NR 22.6162 121.424 main 38 30 __________P___ -1 22.6162 121.424 4 5 343
1929217N18133 1929 47 WP MM NOT_NAMED 1929-08-11 10:00:00 NR 22.7000 121.400 main 30 15 __________O___ -1 22.7000 121.400 4 5 348
1929217N18133 1929 47 WP MM NOT_NAMED 1929-08-11 12:00:00 NR 22.8666 121.360 main 15 0 __________P___ -1 22.8666 121.360 4 5 349
1929217N18133 1929 47 WP MM NOT_NAMED 1929-08-11 15:00:00 NR 23.1416 121.313 main 0 0 __________P___ -1 23.1416 121.313 4 6 352
1929217N18133 1929 47 WP MM NOT_NAMED 1929-08-11 18:00:00 NR 23.4466 121.271 main 0 0 __________P___ -1 23.4466 121.271 4 6 352
1929217N18133 1929 47 WP MM NOT_NAMED 1929-08-11 21:00:00 NR 23.7817 121.221 main 0 0 __________P___ -1 23.7817 121.221 4 7 352
1929217N18133 1929 47 WP MM NOT_NAMED 1929-08-11 22:00:00 NR 23.9000 121.200 main 0 0 __________O___ -1 23.9000 121.200 4 7 349
1929217N18133 1929 47 WP MM NOT_NAMED 1929-08-12 00:00:00 NR 24.1464 121.150 main 0 0 __________P___ -1 24.1464 121.150 4 8 349
1929217N18133 1929 47 WP MM NOT_NAMED 1929-08-12 03:00:00 NR 24.5414 121.062 main 0 0 __________P___ -1 24.5414 121.062 4 8 348
1929217N18133 1929 47 WP MM NOT_NAMED 1929-08-12 06:00:00 NR 24.9528 120.960 main 0 0 __________P___ -1 24.9528 120.960 4 9 347
1929217N18133 1929 47 WP MM NOT_NAMED 1929-08-12 09:00:00 NR 25.3651 120.842 main 49 49 __________P___ -1 25.3651 120.842 4 9 346
1929217N18133 1929 47 WP MM NOT_NAMED 1929-08-12 10:00:00 NR 25.5000 120.800 main 59 59 __________O___ -1 25.5000 120.800 4 9 343
1929217N18133 1929 47 WP MM NOT_NAMED 1929-08-12 12:00:00 NR 25.7793 120.706 main 92 66 __________P___ -1 25.7793 120.706 4 9 342
1929217N18133 1929 47 WP MM NOT_NAMED 1929-08-12 15:00:00 NR 26.1926 120.553 main 66 29 __________P___ -1 26.1926 120.553 4 8 341
1929217N18133 1929 47 WP MM NOT_NAMED 1929-08-12 18:00:00 NR 26.5766 120.396 main 29 0 __________P___ -1 26.5766 120.396 4 8 339
1929217N18133 1929 47 WP MM NOT_NAMED 1929-08-12 21:00:00 NR 26.9064 120.246 main 0 0 __________P___ -1 26.9064 120.246 4 7 338
1929217N18133 1929 47 WP MM NOT_NAMED 1929-08-12 22:00:00 NR 27.0000 120.200 main 0 0 __________O___ -1 27.0000 120.200 4 5 335
1929217N18133 1929 47 WP MM NOT_NAMED 1929-08-13 00:00:00 NR 27.1461 120.119 main 0 0 __________P___ -1 27.1461 120.119 4 4 331
1929217N18133 1929 47 WP MM NOT_NAMED 1929-08-13 03:00:00 NR 27.3084 120.010 main 0 0 __________P___ -1 27.3084 120.010 4 3 327
1929217N18133 1929 47 WP MM NOT_NAMED 1929-08-13 06:00:00 NR 27.4330 119.914 main 0 0 __________P___ -1 27.4330 119.914 4 3 326
1929217N18133 1929 47 WP MM NOT_NAMED 1929-08-13 09:00:00 NR 27.5543 119.827 main 0 0 __________P___ -1 27.5543 119.827 4 3 328
1929217N18133 1929 47 WP MM NOT_NAMED 1929-08-13 10:00:00 NR 27.6000 119.800 main 0 0 __________O___ -1 27.6000 119.800 4 4 336
1929217N18133 1929 47 WP MM NOT_NAMED 1929-08-13 12:00:00 NR 27.7272 119.739 main 0 0 __________P___ -1 27.7272 119.739 4 4 338
1929217N18133 1929 47 WP MM NOT_NAMED 1929-08-13 15:00:00 NR 27.9306 119.654 main 0 0 __________P___ -1 27.9306 119.654 4 4 341
1929217N18133 1929 47 WP MM NOT_NAMED 1929-08-13 18:00:00 NR 28.1383 119.579 main 0 0 __________P___ -1 28.1383 119.579 4 4 344
1929217N18133 1929 47 WP MM NOT_NAMED 1929-08-13 21:00:00 NR 28.3376 119.517 main 0 0 __________P___ -1 28.3376 119.517 4 4 345
1929217N18133 1929 47 WP MM NOT_NAMED 1929-08-13 22:00:00 NR 28.4000 119.500 main 0 0 __________O___ -1 28.4000 119.500 4 3 348
1929217N18133 1929 47 WP MM NOT_NAMED 1929-08-14 00:00:00 NR 28.5062 119.472 main 0 0 __________P___ -1 28.5062 119.472 4 3 347
1929217N18133 1929 47 WP MM NOT_NAMED 1929-08-14 03:00:00 NR 28.6527 119.442 main 0 0 __________P___ -1 28.6527 119.442 4 3 354
1929217N18133 1929 47 WP MM NOT_NAMED 1929-08-14 06:00:00 NR 28.7950 119.422 main 0 0 __________P___ -1 28.7950 119.422 4 3 352
1929217N18133 1929 47 WP MM NOT_NAMED 1929-08-14 09:00:00 NR 28.9457 119.406 main 0 0 __________P___ -1 28.9457 119.406 4 3 356
1929217N18133 1929 47 WP MM NOT_NAMED 1929-08-14 10:00:00 NR 29.0000 119.400 main 0 0 __________O___ -1 29.0000 119.400 4 3 352
1929217N18133 1929 47 WP MM NOT_NAMED 1929-08-14 12:00:00 NR 29.1164 119.387 main 0 0 __________P___ -1 29.1164 119.387 4 4 355
1929217N18133 1929 47 WP MM NOT_NAMED 1929-08-14 15:00:00 NR 29.3077 119.364 main 0 0 __________P___ -1 29.3077 119.364 4 4 354
1929217N18133 1929 47 WP MM NOT_NAMED 1929-08-14 18:00:00 NR 29.5136 119.337 main 0 0 __________P___ -1 29.5136 119.337 4 4 354
1929217N18133 1929 47 WP MM NOT_NAMED 1929-08-14 21:00:00 NR 29.7278 119.310 main 0 0 __________P___ -1 29.7278 119.310 4 4 354
1929217N18133 1929 47 WP MM NOT_NAMED 1929-08-14 22:00:00 NR 29.8000 119.300 main 0 __________O___ -1 29.8000 119.300 7 4 0

デジタル台風データ・検索

IBTrACS Databaseについて

本データベースは、米国NOAAが公開する1842年以降の世界の熱帯低気圧のベストトラックデータアーカイブInternational Best Track Archive for Climate Stewardship (IBTrACS)を、ウェブで閲覧しやすい形式に変換したものです。

最終更新日:2021-10-19